Time;durP1;ratioP1;P1;durP2;ratioP2;P2;SDS_P1;SDS_P2;PMS_P1;PMS_P2;Temp;Humidity;BMP_temperature;BMP_pressure;BME280_temperature;BME280_humidity;BME280_pressure;Samples;Min_cycle;Max_cycle;Signal;HPM_P1;HPM_P2
2020/12/21 08:40:57;;;;;;;0.10;0.10;;;17.70;73.30;;;;;;5102901;27;20354;-39
2020/12/21 08:43:22;;;;;;;0.68;0.17;;;17.70;73.90;;;;;;5106543;28;20178;-40
2020/12/21 08:45:48;;;;;;;0.55;0.10;;;17.70;73.90;;;;;;5095779;28;20495;-39
2020/12/21 08:48:13;;;;;;;0.20;0.20;;;17.70;73.90;;;;;;5093625;28;20032;-39
2020/12/21 08:50:39;;;;;;;0.32;0.10;;;17.80;74.00;;;;;;5105040;28;20027;-37
2020/12/21 08:53:05;;;;;;;0.30;0.10;;;17.80;73.90;;;;;;5106670;28;20078;-37
2020/12/21 08:55:30;;;;;;;0.90;0.10;;;17.80;73.90;;;;;;5103406;28;20032;-37
2020/12/21 08:57:56;;;;;;;1.50;0.10;;;17.80;73.90;;;;;;5104064;28;20503;-38
2020/12/21 09:00:21;;;;;;;0.20;0.20;;;17.80;73.80;;;;;;5104963;28;20036;-37
2020/12/21 09:02:47;;;;;;;0.20;0.10;;;17.80;73.80;;;;;;5105127;28;20030;-38
2020/12/21 09:05:12;;;;;;;0.10;0.10;;;17.80;73.70;;;;;;5106650;28;20020;-38
2020/12/21 09:07:38;;;;;;;1.15;0.38;;;17.80;74.40;;;;;;5103612;28;20556;-37
2020/12/21 09:10:04;;;;;;;3.92;0.03;;;17.80;73.60;;;;;;5105955;28;20056;-38
2020/12/21 09:12:30;;;;;;;0.47;0.10;;;17.80;73.60;;;;;;5102230;28;20539;-37
2020/12/21 09:14:55;;;;;;;0.30;0.17;;;17.90;73.50;;;;;;5103105;28;20028;-39
2020/12/21 09:17:21;;;;;;;4.57;0.10;;;17.90;73.60;;;;;;5103306;28;20044;-39
2020/12/21 09:19:46;;;;;;;1.42;0.10;;;17.90;73.70;;;;;;5103438;28;20040;-40
2020/12/21 09:22:12;;;;;;;1.27;0.10;;;17.90;73.70;;;;;;5102452;28;20023;-39
2020/12/21 09:24:37;;;;;;;3.13;0.20;;;17.90;73.50;;;;;;5100667;28;20047;-39
2020/12/21 09:27:03;;;;;;;2.35;0.20;;;17.90;73.50;;;;;;5101952;28;20106;-39
2020/12/21 09:29:28;;;;;;;0.25;0.10;;;17.90;73.40;;;;;;5102146;28;20035;-39
2020/12/21 09:31:54;;;;;;;0.57;0.28;;;17.80;73.30;;;;;;5099368;28;20039;-37
2020/12/21 09:34:20;;;;;;;0.77;0.10;;;17.90;73.50;;;;;;5100301;28;20141;-38
2020/12/21 09:36:46;;;;;;;0.57;0.10;;;17.90;73.60;;;;;;5099660;28;20036;-38
2020/12/21 09:39:11;;;;;;;2.60;0.20;;;17.90;73.50;;;;;;5097464;28;20047;-38
2020/12/21 09:41:37;;;;;;;2.38;0.10;;;17.90;73.40;;;;;;5091981;28;20525;-38
2020/12/21 09:44:03;;;;;;;0.20;0.10;;;18.00;73.30;;;;;;5098101;28;20085;-39
2020/12/21 09:46:28;;;;;;;0.30;0.15;;;17.90;73.30;;;;;;5103826;28;20023;-37
2020/12/21 09:48:54;;;;;;;0.20;0.10;;;17.90;73.40;;;;;;5093490;28;20028;-39
2020/12/21 09:51:20;;;;;;;1.02;0.10;;;17.90;73.40;;;;;;5088308;28;20020;-38
2020/12/21 09:53:45;;;;;;;2.13;0.52;;;18.00;73.40;;;;;;5089744;28;20035;-39
2020/12/21 09:56:11;;;;;;;1.52;0.25;;;17.90;74.20;;;;;;5089916;28;20543;-39
2020/12/21 09:58:46;;;;;;;1.59;0.23;;;18.00;73.20;;;;;;4993360;27;10000923;-40
2020/12/21 10:01:11;;;;;;;3.30;0.30;;;17.90;73.20;;;;;;5075539;28;20346;-37
2020/12/21 10:03:38;;;;;;;3.67;0.25;;;17.90;73.30;;;;;;5076196;28;20783;-37
2020/12/21 10:06:10;;;;;;;0.30;0.30;;;18.00;73.80;;;;;;5074700;28;20031;-39
2020/12/21 10:08:36;;;;;;;0.32;0.32;;;18.00;73.70;;;;;;5080804;28;20030;-38
2020/12/21 10:11:02;;;;;;;1.55;0.40;;;18.00;73.70;;;;;;5085560;28;20089;-38
2020/12/21 10:13:28;;;;;;;2.70;0.40;;;18.00;74.60;;;;;;5085215;28;20050;-39
2020/12/21 10:15:54;;;;;;;1.55;0.85;;;18.10;74.90;;;;;;5084048;28;20390;-38
2020/12/21 10:18:19;;;;;;;1.40;1.00;;;18.10;74.70;;;;;;5085922;28;20020;-39
2020/12/21 10:20:48;;;;;;;3.88;0.65;;;18.10;75.30;;;;;;5084571;28;20052;-39
2020/12/21 10:23:15;;;;;;;4.60;0.93;;;18.10;74.90;;;;;;5073707;28;20028;-38
2020/12/21 10:25:41;;;;;;;1.25;0.38;;;18.20;75.50;;;;;;5090268;28;20047;-36
2020/12/21 10:28:07;;;;;;;3.83;0.50;;;18.20;74.90;;;;;;5092249;28;20055;-36
2020/12/21 10:30:32;;;;;;;2.67;0.70;;;18.20;75.70;;;;;;5086601;28;20070;-35
2020/12/21 10:33:01;;;;;;;4.68;1.00;;;18.20;75.60;;;;;;5083917;28;20078;-37
2020/12/21 10:35:30;;;;;;;2.00;1.25;;;18.30;78.00;;;;;;5084823;28;20036;-37
2020/12/21 10:37:56;;;;;;;3.90;1.30;;;18.20;79.70;;;;;;5071773;28;20025;-38
2020/12/21 10:40:21;;;;;;;2.13;1.23;;;18.30;80.70;;;;;;5072342;28;20067;-39
2020/12/21 10:42:50;;;;;;;2.80;1.48;;;18.30;80.30;;;;;;5074475;28;20033;-38
2020/12/21 10:45:16;;;;;;;3.95;1.80;;;18.30;80.30;;;;;;5082672;28;20493;-42
2020/12/21 10:47:42;;;;;;;5.28;1.80;;;18.30;80.50;;;;;;5073621;28;20032;-37
2020/12/21 10:50:08;;;;;;;4.40;1.80;;;18.30;80.90;;;;;;5085808;28;20690;-36
2020/12/21 10:52:33;;;;;;;3.33;1.90;;;18.30;80.90;;;;;;5086782;28;20556;-54
2020/12/21 10:54:59;;;;;;;15.63;6.43;;;18.30;80.10;;;;;;5086692;28;20024;-39
2020/12/21 10:57:24;;;;;;;148.68;60.25;;;18.40;79.80;;;;;;5081958;28;20052;-38
2020/12/21 10:59:50;;;;;;;57.42;25.50;;;18.30;80.20;;;;;;5087729;28;20148;-39
2020/12/21 11:02:16;;;;;;;69.30;31.02;;;18.30;80.90;;;;;;5083096;28;20020;-38
2020/12/21 11:04:41;;;;;;;73.95;31.85;;;18.30;79.60;;;;;;5088384;28;20777;-38
2020/12/21 11:07:07;;;;;;;85.30;36.78;;;18.30;79.40;;;;;;5089049;28;20383;-38
2020/12/21 11:09:32;;;;;;;76.32;33.80;;;18.30;79.30;;;;;;5088149;28;20035;-38
2020/12/21 11:11:58;;;;;;;97.80;34.65;;;18.30;79.00;;;;;;5088568;28;20026;-40
2020/12/21 11:14:23;;;;;;;135.15;39.80;;;18.40;78.80;;;;;;5088779;28;20040;-53
2020/12/21 11:16:50;;;;;;;253.00;62.20;;;18.40;78.60;;;;;;5045018;28;20662;-47
2020/12/21 11:19:16;;;;;;;392.27;107.10;;;18.40;78.50;;;;;;5048702;28;20037;-45
2020/12/21 11:21:42;;;;;;;375.52;102.78;;;18.40;78.10;;;;;;5046592;28;20057;-46
2020/12/21 11:24:07;;;;;;;393.25;113.50;;;18.40;78.00;;;;;;5045040;28;20523;-45
2020/12/21 11:26:33;;;;;;;401.13;116.55;;;18.40;78.40;;;;;;5045287;28;20021;-44
2020/12/21 11:28:58;;;;;;;336.00;98.80;;;18.40;78.80;;;;;;5048373;28;20029;-44
2020/12/21 11:31:24;;;;;;;318.20;91.53;;;18.40;78.20;;;;;;5045667;28;20523;-45
2020/12/21 11:33:50;;;;;;;289.30;80.43;;;18.40;78.60;;;;;;5042908;28;20052;-45
2020/12/21 11:36:15;;;;;;;252.90;73.68;;;18.50;79.80;;;;;;5045835;28;20493;-44
2020/12/21 11:38:42;;;;;;;225.95;67.55;;;18.50;80.10;;;;;;5046909;28;20049;-45
2020/12/21 11:41:08;;;;;;;241.27;65.80;;;18.50;80.40;;;;;;5046895;28;20045;-42
2020/12/21 11:43:33;;;;;;;205.05;58.28;;;18.50;80.50;;;;;;5041760;28;20044;-43
2020/12/21 11:45:59;;;;;;;194.80;56.38;;;18.60;80.60;;;;;;5044298;28;20037;-46
2020/12/21 11:48:25;;;;;;;198.60;54.95;;;18.60;80.00;;;;;;5042496;28;20049;-43
2020/12/21 11:50:50;;;;;;;174.82;49.60;;;18.70;79.30;;;;;;5042430;28;20076;-43
2020/12/21 11:53:16;;;;;;;177.70;53.28;;;18.60;79.10;;;;;;5040046;28;20512;-42
2020/12/21 11:55:41;;;;;;;160.90;48.30;;;18.60;78.90;;;;;;5044048;28;20044;-42
2020/12/21 11:58:07;;;;;;;159.77;47.15;;;18.60;78.80;;;;;;5042172;28;20044;-42
2020/12/21 12:00:32;;;;;;;148.90;44.65;;;18.60;78.50;;;;;;5044183;28;20052;-44
2020/12/21 12:02:58;;;;;;;157.98;47.10;;;18.60;78.40;;;;;;5059514;28;20191;-44
2020/12/21 12:05:23;;;;;;;164.35;45.15;;;18.60;78.10;;;;;;5046118;28;20087;-42
2020/12/21 12:07:49;;;;;;;158.52;44.95;;;18.60;78.00;;;;;;5060402;28;20045;-41
2020/12/21 12:10:14;;;;;;;150.15;44.60;;;18.60;77.70;;;;;;4696214;28;10000284;-41
2020/12/21 12:12:40;;;;;;;151.00;45.63;;;18.70;77.70;;;;;;5041283;28;20056;-45
2020/12/21 12:15:06;;;;;;;136.88;42.85;;;18.70;77.40;;;;;;5061485;28;20045;-40
2020/12/21 12:17:31;;;;;;;129.80;40.72;;;18.70;78.20;;;;;;5038457;28;20044;-43
2020/12/21 12:19:57;;;;;;;136.50;42.20;;;18.80;77.20;;;;;;5040610;28;20053;-45
2020/12/21 12:22:22;;;;;;;139.05;41.40;;;18.80;77.60;;;;;;5038438;28;20049;-42
2020/12/21 12:24:48;;;;;;;127.93;39.22;;;18.80;76.90;;;;;;5034146;28;20087;-41
2020/12/21 12:27:13;;;;;;;121.10;39.20;;;18.80;76.50;;;;;;5042434;28;20163;-41
2020/12/21 12:29:39;;;;;;;119.68;38.28;;;18.80;76.70;;;;;;5050585;28;20045;-40
2020/12/21 12:32:05;;;;;;;111.20;36.65;;;18.90;76.70;;;;;;5047575;28;20037;-40
2020/12/21 12:34:30;;;;;;;110.32;36.25;;;18.90;76.80;;;;;;5039943;28;20052;-41
2020/12/21 12:36:56;;;;;;;107.85;33.97;;;18.90;76.80;;;;;;5039928;28;20091;-40
2020/12/21 12:39:21;;;;;;;107.53;33.85;;;18.80;76.60;;;;;;5043218;28;20102;-47
2020/12/21 12:41:47;;;;;;;109.75;35.72;;;18.90;76.50;;;;;;5039866;28;20053;-40
2020/12/21 12:44:12;;;;;;;94.38;31.98;;;18.90;76.50;;;;;;5046512;28;20095;-42
2020/12/21 12:46:38;;;;;;;108.93;33.38;;;18.90;77.10;;;;;;5043344;28;20527;-42
2020/12/21 12:49:05;;;;;;;98.57;33.47;;;18.90;76.10;;;;;;5044435;28;20045;-42
2020/12/21 12:51:31;;;;;;;99.72;34.45;;;18.90;75.80;;;;;;5041269;28;20048;-42
2020/12/21 12:53:56;;;;;;;108.28;36.60;;;18.90;75.90;;;;;;5046462;28;20154;-42
2020/12/21 12:56:22;;;;;;;106.28;35.83;;;19.00;75.60;;;;;;5045579;28;20473;-42
2020/12/21 12:58:50;;;;;;;93.70;34.28;;;18.90;75.40;;;;;;5045670;28;20048;-42
2020/12/21 13:01:16;;;;;;;97.90;35.33;;;19.00;75.40;;;;;;5046801;28;20053;-44
2020/12/21 13:03:43;;;;;;;96.35;34.40;;;19.00;75.30;;;;;;5038599;28;20045;-42
2020/12/21 13:06:09;;;;;;;86.00;30.35;;;19.00;75.10;;;;;;5048900;28;20144;-42
2020/12/21 13:08:35;;;;;;;84.97;28.42;;;19.00;75.10;;;;;;5043383;28;20054;-42
2020/12/21 13:11:00;;;;;;;79.50;26.77;;;19.00;74.90;;;;;;5045791;28;20129;-42
2020/12/21 13:13:26;;;;;;;82.32;28.20;;;19.00;74.70;;;;;;5042633;28;20037;-42
2020/12/21 13:15:51;;;;;;;86.15;29.77;;;19.10;74.70;;;;;;5040349;28;20072;-42
2020/12/21 13:18:17;;;;;;;86.97;28.27;;;19.10;74.70;;;;;;5043662;28;20098;-42
2020/12/21 13:20:43;;;;;;;74.90;24.63;;;19.10;74.50;;;;;;5044076;28;20114;-42
2020/12/21 13:23:08;;;;;;;81.30;27.15;;;19.10;74.30;;;;;;5044598;28;20396;-41
2020/12/21 13:25:34;;;;;;;72.18;25.45;;;19.10;74.20;;;;;;5041102;28;20120;-44
2020/12/21 13:27:59;;;;;;;71.10;26.50;;;19.10;74.30;;;;;;5041377;28;20040;-42
2020/12/21 13:30:25;;;;;;;73.18;25.67;;;19.10;74.30;;;;;;5047904;28;20132;-51
2020/12/21 13:32:50;;;;;;;67.60;22.42;;;19.10;74.40;;;;;;5043752;28;20049;-43
2020/12/21 13:35:17;;;;;;;69.55;23.02;;;19.10;74.10;;;;;;5045953;28;20059;-42
2020/12/21 13:37:43;;;;;;;72.32;22.00;;;19.10;74.10;;;;;;5050199;28;20091;-41
2020/12/21 13:40:09;;;;;;;68.35;22.83;;;19.10;74.00;;;;;;5047338;28;20523;-44
2020/12/21 13:42:34;;;;;;;68.45;21.15;;;19.10;74.10;;;;;;5061373;28;20053;-45
2020/12/21 13:45:00;;;;;;;57.80;20.85;;;19.10;74.10;;;;;;5050961;28;20041;-41
2020/12/21 13:47:26;;;;;;;68.00;21.00;;;19.10;74.20;;;;;;5041936;28;20032;-42
2020/12/21 13:49:51;;;;;;;54.42;20.45;;;19.10;74.20;;;;;;5044537;28;20082;-42
2020/12/21 13:52:17;;;;;;;56.83;20.55;;;19.10;74.20;;;;;;5047914;28;20124;-41
2020/12/21 13:54:43;;;;;;;60.30;19.50;;;19.10;74.20;;;;;;5049197;28;20080;-42
2020/12/21 13:57:09;;;;;;;54.50;17.65;;;19.10;74.20;;;;;;5026629;28;20044;-42
2020/12/21 13:59:35;;;;;;;54.28;17.90;;;19.20;74.20;;;;;;5048121;28;20110;-41
2020/12/21 14:02:02;;;;;;;57.72;18.70;;;19.10;74.20;;;;;;5044686;28;20485;-42
2020/12/21 14:04:27;;;;;;;49.35;17.58;;;19.20;74.20;;;;;;5069130;28;20064;-41
2020/12/21 14:06:54;;;;;;;49.80;17.70;;;19.10;74.20;;;;;;5049789;28;20056;-42
2020/12/21 14:09:20;;;;;;;48.63;17.15;;;19.20;74.20;;;;;;5064457;28;20495;-41
2020/12/21 14:11:46;;;;;;;42.00;17.30;;;19.10;74.20;;;;;;5044941;28;20057;-41
2020/12/21 14:14:12;;;;;;;46.55;16.75;;;19.10;74.20;;;;;;5061705;28;20041;-45
2020/12/21 14:16:37;;;;;;;49.78;15.70;;;19.20;74.20;;;;;;5049105;28;20052;-42
2020/12/21 14:19:03;;;;;;;44.88;14.85;;;19.20;74.00;;;;;;5057118;28;20512;-42
2020/12/21 14:21:33;;;;;;;40.88;14.50;;;19.20;74.00;;;;;;5044418;28;20053;-55
2020/12/21 14:23:59;;;;;;;37.33;14.40;;;19.20;73.80;;;;;;5029162;28;20041;-43
2020/12/21 14:26:31;;;;;;;38.58;14.20;;;19.20;73.90;;;;;;5049524;28;20155;-42
2020/12/21 14:28:58;;;;;;;37.88;13.55;;;19.20;73.90;;;;;;5049700;28;20527;-53
2020/12/21 14:31:33;;;;;;;40.15;14.15;;;19.20;73.80;;;;;;5048089;28;20033;-40
2020/12/21 14:33:59;;;;;;;32.75;12.77;;;19.20;73.80;;;;;;5047841;28;20171;-46
2020/12/21 14:36:29;;;;;;;32.42;12.32;;;19.20;73.50;;;;;;5029087;28;20139;-39
2020/12/21 14:38:54;;;;;;;38.47;12.75;;;19.20;73.50;;;;;;5028413;28;20052;-43
2020/12/21 14:41:20;;;;;;;34.00;12.85;;;19.20;73.30;;;;;;5046686;28;20057;-42
2020/12/21 14:43:46;;;;;;;30.15;12.18;;;19.20;73.30;;;;;;5045554;28;20512;-43
2020/12/21 14:46:21;;;;;;;35.28;11.90;;;19.20;73.30;;;;;;5046920;28;20416;-52
2020/12/21 14:48:47;;;;;;;28.17;12.27;;;19.20;73.20;;;;;;5044676;28;20045;-42
2020/12/21 14:51:22;;;;;;;29.02;11.52;;;19.20;73.30;;;;;;5049254;28;20048;-43
2020/12/21 14:53:55;;;;;;;33.55;12.50;;;19.20;73.30;;;;;;5041785;28;20520;-43
2020/12/21 14:56:21;;;;;;;28.03;11.67;;;19.20;73.40;;;;;;5042379;28;20604;-43
2020/12/21 14:58:47;;;;;;;26.00;11.40;;;19.20;73.30;;;;;;5045822;28;20172;-41
2020/12/21 15:01:13;;;;;;;29.35;12.95;;;19.20;73.40;;;;;;5048891;28;20049;-40
2020/12/21 15:03:38;;;;;;;31.92;13.07;;;19.20;73.30;;;;;;5047908;28;20048;-41
2020/12/21 15:06:05;;;;;;;28.63;12.48;;;19.20;73.30;;;;;;5045290;28;20401;-46
2020/12/21 15:08:30;;;;;;;27.67;12.40;;;19.30;73.30;;;;;;5046154;28;20501;-46
2020/12/21 15:10:56;;;;;;;30.42;13.60;;;19.20;73.20;;;;;;5047664;28;20138;-41
2020/12/21 15:13:22;;;;;;;29.75;11.10;;;19.20;73.30;;;;;;5047082;28;20052;-42
2020/12/21 15:15:47;;;;;;;29.38;12.48;;;19.20;73.30;;;;;;5044749;28;20068;-46
2020/12/21 15:18:13;;;;;;;22.60;11.43;;;19.20;73.20;;;;;;5047421;28;20044;-45
2020/12/21 15:20:38;;;;;;;24.70;10.40;;;19.20;73.30;;;;;;5045481;28;20072;-42
2020/12/21 15:23:04;;;;;;;24.55;11.68;;;19.20;73.30;;;;;;5031004;28;20037;-41
2020/12/21 15:25:30;;;;;;;27.65;10.57;;;19.30;73.30;;;;;;5048472;28;20051;-50
2020/12/21 15:27:56;;;;;;;24.15;9.25;;;19.20;72.90;;;;;;5049219;28;20045;-40
2020/12/21 15:30:22;;;;;;;29.17;11.13;;;19.20;73.20;;;;;;5047736;28;20041;-41
2020/12/21 15:32:48;;;;;;;22.42;9.80;;;19.20;73.30;;;;;;5047078;28;20045;-42
2020/12/21 15:35:13;;;;;;;25.13;10.98;;;19.20;73.10;;;;;;5045212;28;20120;-45
2020/12/21 15:37:40;;;;;;;18.23;9.68;;;19.20;73.10;;;;;;5043140;28;20080;-41
2020/12/21 15:40:05;;;;;;;21.95;9.35;;;19.20;73.00;;;;;;5045869;28;20520;-42
2020/12/21 15:42:31;;;;;;;19.95;8.65;;;19.30;72.90;;;;;;5047226;28;20045;-40
2020/12/21 15:44:57;;;;;;;19.33;8.75;;;19.30;72.90;;;;;;5043858;28;20483;-41
2020/12/21 15:47:22;;;;;;;17.48;7.20;;;19.30;72.90;;;;;;5045639;28;20041;-40
2020/12/21 15:49:48;;;;;;;17.60;8.43;;;19.30;72.40;;;;;;5047211;28;20186;-40
2020/12/21 15:52:14;;;;;;;20.30;9.20;;;19.30;72.70;;;;;;5047718;28;20078;-39
2020/12/21 15:54:40;;;;;;;19.40;8.55;;;19.30;72.60;;;;;;5049088;28;20049;-39
2020/12/21 15:57:06;;;;;;;18.85;8.60;;;19.40;72.60;;;;;;5044024;28;20450;-44
2020/12/21 15:59:31;;;;;;;15.48;8.27;;;19.40;72.50;;;;;;5045272;28;20512;-39
2020/12/21 16:01:57;;;;;;;15.23;7.88;;;19.40;72.60;;;;;;5045132;28;20115;-40
2020/12/21 16:04:22;;;;;;;14.18;7.70;;;19.40;72.60;;;;;;5042046;28;20045;-40
2020/12/21 16:06:48;;;;;;;19.02;7.78;;;19.40;72.50;;;;;;5046691;28;20504;-42
2020/12/21 16:09:14;;;;;;;16.35;7.13;;;19.40;72.30;;;;;;5046463;28;20042;-41
2020/12/21 16:11:40;;;;;;;16.98;7.03;;;19.40;72.20;;;;;;5043074;28;20037;-41
2020/12/21 16:14:06;;;;;;;13.48;6.32;;;19.40;72.30;;;;;;5059627;28;20529;-40
2020/12/21 16:16:34;;;;;;;16.23;7.40;;;19.40;72.10;;;;;;5052917;28;20045;-42
2020/12/21 16:19:00;;;;;;;10.75;6.63;;;19.50;72.80;;;;;;5044924;28;20133;-41
2020/12/21 16:21:26;;;;;;;16.52;7.07;;;19.50;71.90;;;;;;5046287;28;20481;-42
2020/12/21 16:23:52;;;;;;;11.73;6.00;;;19.50;71.90;;;;;;5058243;28;20049;-43
2020/12/21 16:26:25;;;;;;;11.32;5.72;;;19.50;71.80;;;;;;5046022;28;20040;-46
2020/12/21 16:28:51;;;;;;;13.05;5.65;;;19.50;71.50;;;;;;5066132;28;20582;-41
2020/12/21 16:31:16;;;;;;;14.77;6.07;;;19.50;71.50;;;;;;5044795;28;20049;-44
2020/12/21 16:33:42;;;;;;;11.98;5.82;;;19.60;71.70;;;;;;5044737;28;20053;-41
2020/12/21 16:36:07;;;;;;;9.93;5.13;;;19.60;71.60;;;;;;5045320;28;20531;-41
2020/12/21 16:38:33;;;;;;;11.20;6.20;;;19.60;71.50;;;;;;5047430;28;20048;-43
2020/12/21 16:40:58;;;;;;;9.23;5.45;;;19.60;71.50;;;;;;5047821;28;20455;-64
2020/12/21 16:43:24;;;;;;;9.35;5.18;;;19.60;71.50;;;;;;5047596;28;20151;-39
2020/12/21 16:45:52;;;;;;;12.77;5.93;;;19.60;71.10;;;;;;5045123;28;20057;-40
2020/12/21 16:48:18;;;;;;;26.33;5.75;;;19.60;71.10;;;;;;5041879;28;20045;-39
2020/12/21 16:50:44;;;;;;;11.82;5.13;;;19.60;71.40;;;;;;5063894;28;20470;-40
2020/12/21 16:53:09;;;;;;;11.48;4.97;;;19.60;71.00;;;;;;5053579;28;20045;-40
2020/12/21 16:55:35;;;;;;;10.40;5.07;;;19.60;71.10;;;;;;5048185;28;20045;-40
2020/12/21 16:58:00;;;;;;;11.15;5.25;;;19.60;71.00;;;;;;5042551;28;20041;-40
2020/12/21 17:00:26;;;;;;;13.40;5.35;;;19.60;71.60;;;;;;5052322;28;20079;-40
2020/12/21 17:02:51;;;;;;;9.35;5.32;;;19.60;70.90;;;;;;5053907;28;20040;-41
2020/12/21 17:05:17;;;;;;;9.65;4.90;;;19.60;71.00;;;;;;5056338;28;20072;-40
2020/12/21 17:07:43;;;;;;;9.02;4.72;;;19.60;70.80;;;;;;5058624;28;20037;-40
2020/12/21 17:10:08;;;;;;;11.18;4.85;;;19.60;70.80;;;;;;5045140;28;20044;-40
2020/12/21 17:12:34;;;;;;;9.73;4.50;;;19.60;70.70;;;;;;5047031;28;20049;-43
2020/12/21 17:14:59;;;;;;;9.70;4.30;;;19.60;70.70;;;;;;5043802;28;20041;-42
2020/12/21 17:17:25;;;;;;;8.32;3.97;;;19.60;70.70;;;;;;5076320;28;20053;-42
2020/12/21 17:19:51;;;;;;;6.97;4.68;;;19.60;70.60;;;;;;5047443;28;20037;-40
2020/12/21 17:22:17;;;;;;;6.97;4.03;;;19.60;70.50;;;;;;5051444;28;20195;-39
2020/12/21 17:24:42;;;;;;;5.63;3.92;;;19.60;70.50;;;;;;5050357;28;20045;-39
2020/12/21 17:27:08;;;;;;;7.43;4.70;;;19.60;70.40;;;;;;5057177;28;20054;-40
2020/12/21 17:29:33;;;;;;;8.60;4.18;;;19.60;70.50;;;;;;5052181;28;20114;-39
2020/12/21 17:31:59;;;;;;;7.93;4.95;;;19.60;70.50;;;;;;5050429;28;20048;-39
2020/12/21 17:34:24;;;;;;;7.75;4.93;;;19.60;70.40;;;;;;5048961;28;20128;-40
2020/12/21 17:36:50;;;;;;;8.55;3.72;;;19.60;70.40;;;;;;5050901;28;20447;-40
2020/12/21 17:39:15;;;;;;;6.85;4.28;;;19.60;70.30;;;;;;5052277;28;20416;-39
2020/12/21 17:41:41;;;;;;;6.57;3.63;;;19.60;70.30;;;;;;5049437;28;20132;-39
2020/12/21 17:44:07;;;;;;;5.22;4.00;;;19.60;70.30;;;;;;5046401;28;20046;-40
2020/12/21 17:46:39;;;;;;;5.28;3.83;;;19.60;70.40;;;;;;5042887;28;20481;-43
2020/12/21 17:49:05;;;;;;;4.55;3.30;;;19.60;70.60;;;;;;5040165;28;20068;-41
2020/12/21 17:51:31;;;;;;;6.60;3.90;;;19.60;70.60;;;;;;5044402;28;20069;-41
2020/12/21 17:53:56;;;;;;;6.38;3.78;;;19.60;70.40;;;;;;5040090;28;20120;-42
2020/12/21 17:56:30;;;;;;;4.72;3.13;;;19.70;70.60;;;;;;5052276;28;20045;-42
2020/12/21 17:58:55;;;;;;;6.13;3.85;;;19.60;70.50;;;;;;5047770;28;20048;-41
2020/12/21 18:01:21;;;;;;;7.80;3.63;;;19.70;70.60;;;;;;5050317;28;20056;-57
2020/12/21 18:03:47;;;;;;;4.60;3.40;;;19.70;70.60;;;;;;5046230;28;20037;-40
2020/12/21 18:06:12;;;;;;;9.10;3.83;;;19.70;70.50;;;;;;5050243;28;20052;-45
2020/12/21 18:08:39;;;;;;;5.05;3.83;;;19.70;70.50;;;;;;5046551;28;20037;-40
2020/12/21 18:11:05;;;;;;;4.70;3.10;;;19.70;70.50;;;;;;4707447;28;10000881;-54
2020/12/21 18:13:31;;;;;;;4.82;3.03;;;19.70;70.30;;;;;;5045134;28;20036;-45
2020/12/21 18:15:57;;;;;;;4.57;2.90;;;19.70;70.20;;;;;;5042394;28;20386;-41
2020/12/21 18:18:22;;;;;;;4.45;3.50;;;19.70;70.30;;;;;;5038965;28;20057;-46
2020/12/21 18:20:48;;;;;;;5.95;3.13;;;19.70;70.20;;;;;;5046015;28;20131;-40
2020/12/21 18:23:13;;;;;;;5.80;3.35;;;19.80;70.30;;;;;;5043059;28;20049;-42
2020/12/21 18:25:39;;;;;;;7.78;3.15;;;19.80;70.40;;;;;;5039531;28;20037;-43
2020/12/21 18:28:04;;;;;;;5.07;2.88;;;19.80;70.40;;;;;;5044504;28;20052;-40
2020/12/21 18:30:30;;;;;;;6.00;3.90;;;19.80;70.40;;;;;;5040337;28;20619;-42
2020/12/21 18:32:56;;;;;;;5.82;2.88;;;19.80;70.40;;;;;;5044586;28;20157;-44
2020/12/21 18:35:21;;;;;;;7.32;4.15;;;19.80;70.20;;;;;;5045371;28;20056;-44
2020/12/21 18:37:47;;;;;;;11.60;7.57;;;19.80;70.10;;;;;;5044661;28;20049;-41
2020/12/21 18:40:13;;;;;;;14.82;9.10;;;19.80;70.10;;;;;;5050544;28;20148;-44
2020/12/21 18:42:38;;;;;;;18.20;9.25;;;19.80;70.10;;;;;;5040979;28;20057;-42
2020/12/21 18:45:04;;;;;;;16.13;10.07;;;19.80;70.20;;;;;;5043953;28;20050;-42
2020/12/21 18:47:31;;;;;;;16.42;10.77;;;19.80;70.20;;;;;;5044909;28;20047;-40
2020/12/21 18:50:00;;;;;;;16.80;10.25;;;19.70;70.30;;;;;;5042097;28;20056;-44
2020/12/21 18:52:26;;;;;;;17.52;10.35;;;19.70;70.30;;;;;;5044226;28;20108;-41
2020/12/21 18:54:51;;;;;;;20.23;11.18;;;19.80;70.30;;;;;;5041232;28;20202;-43
2020/12/21 18:57:17;;;;;;;21.85;12.02;;;19.80;70.40;;;;;;5041817;28;20446;-40
2020/12/21 18:59:43;;;;;;;22.00;12.05;;;19.80;70.40;;;;;;5044301;28;20098;-39
2020/12/21 19:02:09;;;;;;;22.35;12.20;;;19.80;70.40;;;;;;5046897;28;20543;-42
2020/12/21 19:04:34;;;;;;;21.30;11.63;;;19.80;70.40;;;;;;5044361;28;20049;-42
2020/12/21 19:07:00;;;;;;;20.15;11.15;;;19.80;70.50;;;;;;5041855;28;20104;-40
2020/12/21 19:09:26;;;;;;;22.40;11.13;;;19.80;70.50;;;;;;5039017;28;20063;-42
2020/12/21 19:11:52;;;;;;;18.90;11.02;;;19.80;70.50;;;;;;5041740;28;20496;-46
2020/12/21 19:14:17;;;;;;;17.65;10.85;;;19.80;70.50;;;;;;5040127;28;20052;-41
2020/12/21 19:16:44;;;;;;;20.77;10.95;;;19.80;70.60;;;;;;5043519;28;20056;-44
2020/12/21 19:19:10;;;;;;;18.33;10.30;;;19.80;70.60;;;;;;5046856;28;20036;-39
2020/12/21 19:21:35;;;;;;;20.00;10.60;;;19.80;70.60;;;;;;5039289;28;20090;-40
2020/12/21 19:24:02;;;;;;;17.02;10.60;;;19.80;71.00;;;;;;5039215;28;20048;-46
2020/12/21 19:26:27;;;;;;;17.95;9.90;;;19.80;71.00;;;;;;5043334;28;20041;-43
2020/12/21 19:28:53;;;;;;;18.00;10.35;;;19.80;71.10;;;;;;5044110;28;20075;-40
2020/12/21 19:31:19;;;;;;;19.10;9.85;;;19.80;71.10;;;;;;5050020;28;20041;-42
2020/12/21 19:33:44;;;;;;;16.75;9.57;;;19.90;71.90;;;;;;5046701;28;20069;-40
2020/12/21 19:36:11;;;;;;;14.63;9.05;;;19.90;71.10;;;;;;5041624;28;20708;-40
2020/12/21 19:38:37;;;;;;;15.52;8.93;;;19.90;71.10;;;;;;5048487;28;20413;-41
2020/12/21 19:41:03;;;;;;;15.35;9.70;;;19.90;71.10;;;;;;5045167;28;20055;-41
2020/12/21 19:43:29;;;;;;;14.88;8.43;;;19.90;71.10;;;;;;5044666;28;20025;-41
2020/12/21 19:45:54;;;;;;;12.68;8.30;;;19.90;71.20;;;;;;5047000;28;20033;-42
2020/12/21 19:48:20;;;;;;;11.52;7.55;;;19.90;71.00;;;;;;5049300;28;20031;-41
2020/12/21 19:50:46;;;;;;;15.82;8.35;;;19.90;70.90;;;;;;5053916;28;20060;-45
2020/12/21 19:53:11;;;;;;;13.73;8.63;;;19.90;70.80;;;;;;5044217;28;20098;-47
2020/12/21 19:55:39;;;;;;;14.95;7.97;;;19.90;70.90;;;;;;5040179;28;20048;-41
2020/12/21 19:58:05;;;;;;;12.57;7.75;;;19.90;71.50;;;;;;5047432;28;20043;-41
2020/12/21 20:00:30;;;;;;;13.82;7.93;;;19.90;70.90;;;;;;5043262;28;20029;-41
2020/12/21 20:02:56;;;;;;;17.05;7.80;;;19.90;70.70;;;;;;5043337;28;20033;-42
2020/12/21 20:05:22;;;;;;;13.70;7.45;;;19.90;70.80;;;;;;5045830;28;20040;-41
2020/12/21 20:07:47;;;;;;;9.43;6.43;;;20.00;71.00;;;;;;5056910;28;20031;-41
2020/12/21 20:10:13;;;;;;;10.07;6.80;;;20.00;70.90;;;;;;5046321;28;20025;-42
2020/12/21 20:12:42;;;;;;;12.85;6.78;;;20.00;70.90;;;;;;5043249;28;20128;-44
2020/12/21 20:15:11;;;;;;;7.30;6.30;;;20.00;70.80;;;;;;5043899;28;20107;-42
2020/12/21 20:17:37;;;;;;;9.55;6.75;;;20.00;71.60;;;;;;5046213;28;20111;-41
2020/12/21 20:20:12;;;;;;;11.20;6.53;;;20.00;70.70;;;;;;5050037;28;20037;-49
2020/12/21 20:22:37;;;;;;;13.65;7.00;;;20.00;70.80;;;;;;5039206;28;20025;-50
2020/12/21 20:25:04;;;;;;;11.05;7.00;;;20.00;70.70;;;;;;5048780;28;20040;-41
2020/12/21 20:27:30;;;;;;;9.55;6.32;;;20.00;70.50;;;;;;5050267;28;20024;-42
2020/12/21 20:29:56;;;;;;;9.73;5.63;;;20.00;70.40;;;;;;5043758;28;20036;-42
2020/12/21 20:32:22;;;;;;;10.23;6.10;;;20.00;70.60;;;;;;5046977;28;20166;-45
2020/12/21 20:34:47;;;;;;;8.57;6.63;;;20.00;70.80;;;;;;5050963;28;20055;-40
2020/12/21 20:37:14;;;;;;;11.52;6.38;;;20.10;70.80;;;;;;5054979;28;20033;-40
2020/12/21 20:39:39;;;;;;;8.57;6.15;;;20.10;70.70;;;;;;5045881;28;20057;-41
2020/12/21 20:42:08;;;;;;;10.48;5.88;;;20.10;70.60;;;;;;5046732;28;20027;-46
2020/12/21 20:44:34;;;;;;;7.85;5.72;;;20.10;70.70;;;;;;5046845;28;20056;-42
2020/12/21 20:47:00;;;;;;;8.40;5.47;;;20.10;70.80;;;;;;5044161;28;20033;-57
2020/12/21 20:49:25;;;;;;;11.50;5.88;;;20.10;70.70;;;;;;5051619;28;20079;-44
2020/12/21 20:52:00;;;;;;;7.45;5.25;;;20.10;70.80;;;;;;5039651;28;20069;-41
2020/12/21 20:54:26;;;;;;;6.45;4.82;;;20.10;70.80;;;;;;5049097;28;20135;-41
2020/12/21 20:56:58;;;;;;;8.65;5.70;;;20.10;70.80;;;;;;5044571;28;20063;-41
2020/12/21 20:59:24;;;;;;;8.05;5.03;;;20.10;70.80;;;;;;5052880;28;20057;-41
2020/12/21 21:01:50;;;;;;;8.63;5.80;;;20.10;70.70;;;;;;5055361;28;20029;-40
2020/12/21 21:04:16;;;;;;;5.22;4.60;;;20.10;70.90;;;;;;5046792;28;20036;-46
2020/12/21 21:06:41;;;;;;;5.28;4.35;;;20.10;70.70;;;;;;5064848;28;20108;-47
2020/12/21 21:09:08;;;;;;;7.95;4.65;;;20.10;70.70;;;;;;5044390;28;20891;-41